Flight Track Log - Related Links

Times and Time Zones

All times are in EDT time to prevent confusion due to time zone crossing. See the JUS327 flight status page for this flight to view local times or setup timezone preferences in your user account.

Time Position Orientation Groundspeed Altitude Reporting Facility
EDT Latitude Longitude Course Direction KTS MPH feet Rate Location/Type
Sat 01:55:53 AM 32.0975 -110.9164 128° Southeast 171 197 3,700  Level Albuquerque Center
Sat 01:56:30 AM 32.0761 -110.8842 128° Southeast 198 228 4,900 1,546 Climbing Albuquerque Center
Sat 01:57:30 AM 32.0464 -110.8303 123° Southeast 218 251 6,200 1,450 Climbing Albuquerque Center
Sat 01:58:30 AM 32.0408 -110.7494 95° East 250 288 7,800 2,083 Climbing Albuquerque Center
Sat 01:59:31 AM 32.0556 -110.6703 78° East 264 304 10,400 2,430 Climbing Albuquerque Center
Sat 02:00:31 AM 32.0967 -110.6003 55° Northeast 278 320 12,700 2,150 Climbing Albuquerque Center
Sat 02:01:31 AM 32.1506 -110.5161 53° Northeast 296 341 14,700 1,983 Climbing Albuquerque Center
Sat 02:02:32 AM 32.2064 -110.4297 53° Northeast 323 372 16,700 1,884 Climbing Albuquerque Center
Sat 02:03:32 AM 32.2606 -110.3386 55° Northeast 335 386 18,500 1,785 Climbing Albuquerque Center
Sat 02:04:33 AM 32.2914 -110.2381 70° East 362 417 20,300 1,983 Climbing Albuquerque Center
Sat 02:05:33 AM 32.3328 -110.1047 70° East 364 419 22,500 1,785 Climbing Albuquerque Center
Sat 02:06:34 AM 32.3656 -109.9867 72° East 382 440 23,900 1,444 Climbing Albuquerque Center
Sat 02:07:46 AM 32.3992 -109.8692 71° East 382 440 25,700 1,591 Climbing Albuquerque Center
Sat 02:08:46 AM 32.4475 -109.7286 68° East 388 447 27,400 1,488 Climbing Albuquerque Center
Sat 02:09:47 AM 32.5217 -109.6328 47° Northeast 396 456 28,700 1,190 Climbing Albuquerque Center
Sat 02:10:47 AM 32.5911 -109.5289 52° Northeast 401 461 29,800 1,190 Climbing Albuquerque Center
Sat 02:11:48 AM 32.6575 -109.4175 55° Northeast 411 473 31,100 1,190 Climbing Albuquerque Center
Sat 02:12:48 AM 32.7350 -109.3150 48° Northeast 417 480 32,200 850 Climbing Albuquerque Center
Sat 02:13:48 AM 32.8033 -109.2025 54° Northeast 422 486 32,800 893 Climbing Albuquerque Center
Sat 02:14:49 AM 32.8781 -109.0961 50° Northeast 421 484 34,000 992 Climbing Albuquerque Center
Sat 02:15:49 AM 32.9542 -108.9794 52° Northeast 428 493 34,800 496 Climbing Albuquerque Center
Sat 02:16:50 AM 33.0250 -108.8669 53° Northeast 426 490 35,000 99 Climbing Albuquerque Center
Sat 02:17:50 AM 33.1031 -108.7569 50° Northeast 421 484 35,000  Level Albuquerque Center
Sat 02:18:50 AM 33.1628 -108.6406 58° Northeast 415 478 35,000  Level Albuquerque Center
Sat 02:19:51 AM 33.2314 -108.5306 53° Northeast 414 476 35,000  Level Albuquerque Center
Sat 02:20:51 AM 33.3017 -108.4236 52° Northeast 414 476 35,000  Level Albuquerque Center
Sat 02:21:51 AM 33.3631 -108.3067 58° Northeast 416 479 35,000  Level Albuquerque Center
Sat 02:22:52 AM 33.4308 -108.1956 54° Northeast 417 480 35,000 -50 Level Albuquerque Center
Sat 02:23:52 AM 33.4981 -108.0800 55° Northeast 417 480 34,900  Descending Albuquerque Center
Sat 02:24:52 AM 33.5622 -107.9658 56° Northeast 414 476 35,000  Climbing Albuquerque Center
Sat 02:25:53 AM 33.6328 -107.8572 52° Northeast 413 475 34,900 -50 Descending Albuquerque Center
Sat 02:26:53 AM 33.6936 -107.7386 58° Northeast 414 476 34,900  Level Albuquerque Center
Sat 02:27:54 AM 33.7619 -107.6294 53° Northeast 410 472 34,900  Level Albuquerque Center
Sat 02:28:54 AM 33.8278 -107.5194 54° Northeast 405 466 34,900  Level Albuquerque Center
Sat 02:29:54 AM 33.8900 -107.4036 57° Northeast 409 471 34,900  Level Albuquerque Center
Sat 02:30:55 AM 33.9603 -107.2922 53° Northeast 414 476 34,900  Level Albuquerque Center
Sat 02:31:55 AM 34.0206 -107.1756 58° Northeast 409 471 34,900  Level Albuquerque Center
Sat 02:32:55 AM 34.0889 -107.0622 54° Northeast 415 478 34,900  Level Albuquerque Center
Sat 02:33:56 AM 34.1553 -106.9492 55° Northeast 414 476 34,900 50 Level Albuquerque Center
Sat 02:34:56 AM 34.2161 -106.8281 59° Northeast 415 478 35,000 50 Climbing Albuquerque Center
Sat 02:35:56 AM 34.2883 -106.7194 51° Northeast 417 480 35,000  Level Albuquerque Center
Sat 02:36:57 AM 34.3511 -106.5947 59° Northeast 420 483 35,000  Level Albuquerque Center
Sat 02:37:57 AM 34.4169 -106.4783 56° Northeast 422 486 35,000  Level Albuquerque Center
Sat 02:38:58 AM 34.4861 -106.3656 53° Northeast 419 482 35,000  Level Albuquerque Center
Sat 02:39:58 AM 34.5464 -106.2403 60° Northeast 427 491 35,000  Level Albuquerque Center
Sat 02:40:58 AM 34.6292 -106.1100 52° Northeast 418 481 35,000  Level Albuquerque Center
Sat 02:41:59 AM 34.6925 -105.9878 58° Northeast 424 488 35,000  Level Albuquerque Center
Sat 02:42:59 AM 34.7572 -105.8675 57° Northeast 422 486 35,000  Level Albuquerque Center
Sat 02:43:59 AM 34.8269 -105.7522 54° Northeast 421 484 35,000  Level Albuquerque Center
Sat 02:45:00 AM 34.8867 -105.6264 60° Northeast 425 489 35,000  Level Albuquerque Center
Sat 02:46:00 AM 34.9592 -105.5092 53° Northeast 426 490 35,000  Level Albuquerque Center
Sat 02:47:00 AM 35.0258 -105.3875 56° Northeast 429 494 35,000  Level Albuquerque Center
Sat 02:48:01 AM 35.0881 -105.2642 58° Northeast 425 489 35,000  Level Albuquerque Center
Sat 02:49:01 AM 35.1581 -105.1444 54° Northeast 426 490 35,000  Level Albuquerque Center
Sat 02:50:01 AM 35.2183 -105.0181 60° Northeast 428 493 35,000  Level Albuquerque Center
Sat 02:51:02 AM 35.2769 -104.9197 54° Northeast 424 488 35,000  Level Albuquerque Center
Sat 02:52:02 AM 35.3417 -104.7986 57° Northeast 422 486 35,000  Level Albuquerque Center
Sat 02:53:02 AM 35.4036 -104.6739 59° Northeast 422 486 35,000  Level Albuquerque Center
Sat 02:54:03 AM 35.4744 -104.5564 53° Northeast 422 486 35,000  Level Albuquerque Center
Sat 02:55:03 AM 35.5344 -104.4303 60° Northeast 420 483 35,000  Level Albuquerque Center
Sat 02:56:03 AM 35.6022 -104.3100 55° Northeast 421 484 35,000  Level Albuquerque Center
Sat 02:57:04 AM 35.6667 -104.1875 57° Northeast 420 483 35,000  Level Albuquerque Center
Sat 02:58:04 AM 35.7281 -104.0619 59° Northeast 422 486 35,000  Level Albuquerque Center
Sat 02:59:04 AM 35.7972 -103.9444 54° Northeast 419 482 35,000  Level Albuquerque Center
Sat 03:00:06 AM 35.8547 -103.8175 61° Northeast 418 481 35,000  Level Albuquerque Center
Sat 03:01:06 AM 35.9225 -103.6969 55° Northeast 421 484 35,000  Level Albuquerque Center
Sat 03:02:07 AM 35.9856 -103.5744 58° Northeast 420 483 35,000  Level Albuquerque Center
Sat 03:03:07 AM 36.0469 -103.4486 59° Northeast 421 484 35,000  Level Albuquerque Center
Sat 03:04:07 AM 36.1156 -103.3311 54° Northeast 420 483 35,000  Level Albuquerque Center
Sat 03:05:07 AM 36.1719 -103.2025 61° Northeast 421 484 35,000  Level Albuquerque Center
Sat 03:06:08 AM 36.2350 -103.0803 57° Northeast 419 482 35,000  Level Albuquerque Center
Sat 03:07:08 AM 36.2947 -102.9558 59° Northeast 417 480 35,000  Level Albuquerque Center
Sat 03:08:08 AM 36.3594 -102.8444 54° Northeast 416 479 35,000  Level Albuquerque Center
Sat 03:09:09 AM 36.4178 -102.7211 60° Northeast 415 478 35,000  Level Albuquerque Center
Sat 03:10:09 AM 36.4775 -102.5972 59° Northeast 417 480 35,000  Level Albuquerque Center
Sat 03:11:09 AM 36.5450 -102.4797 54° Northeast 418 481 35,000  Level Albuquerque Center
Sat 03:12:10 AM 36.6011 -102.3553 61° Northeast 414 476 35,000  Level Albuquerque Center
Sat 03:13:10 AM 36.6644 -102.2344 57° Northeast 416 479 35,000  Level Albuquerque Center
Sat 03:14:10 AM 36.7322 -102.1036 57° Northeast 412 474 35,000  Level Albuquerque Center
Sat 03:15:14 AM 36.7819 -101.9817 63° Northeast 411 473 35,000  Level Albuquerque Center
Sat 03:16:14 AM 36.8450 -101.8697 55° Northeast 410 472 35,000  Level Albuquerque Center
Sat 03:17:14 AM 36.9117 -101.7356 58° Northeast 409 471 35,000  Level Albuquerque Center
Sat 03:18:15 AM 36.9647 -101.6156 61° Northeast 410 472 35,000  Level Albuquerque Center
Sat 03:20:39 AM 37.1058 -101.3247 59° Northeast 409 471 35,000  Level Kansas City Center
Sat 03:21:39 AM 37.1664 -101.2108 56° Northeast 412 474 35,000  Level Kansas City Center
Sat 03:22:39 AM 37.2319 -101.0761 59° Northeast 407 468 35,000  Level Kansas City Center
Sat 03:23:40 AM 37.2836 -100.9561 62° Northeast 409 471 35,000  Level Kansas City Center
Sat 03:24:40 AM 37.3458 -100.8425 55° Northeast 413 475 35,000  Level Kansas City Center
Sat 03:25:40 AM 37.4042 -100.7006 63° Northeast 414 476 35,000  Level Kansas City Center
Sat 03:26:40 AM 37.4622 -100.5853 58° Northeast 413 475 35,000  Level Kansas City Center
Sat 03:27:40 AM 37.5217 -100.4706 57° Northeast 412 474 35,000  Level Kansas City Center
Sat 03:28:41 AM 37.5792 -100.3269 63° Northeast 413 475 35,000  Level Kansas City Center
Sat 03:29:41 AM 37.6411 -100.2131 55° Northeast 412 474 35,000  Level Kansas City Center
Sat 03:30:41 AM 37.6983 -100.0919 59° Northeast 419 482 35,000  Level Kansas City Center
Sat 03:31:41 AM 37.7581 -99.9486 62° Northeast 416 479 35,000  Level Kansas City Center
Sat 03:32:42 AM 37.8194 -99.8325 56° Northeast 413 475 35,000  Level Kansas City Center
Sat 03:33:42 AM 37.8706 -99.7086 62° Northeast 417 480 35,000 -450 Level Kansas City Center
Sat 03:34:42 AM 37.9253 -99.5861 60° Northeast 417 480 34,100 -1,100 Descending Kansas City Center
Sat 03:35:42 AM 37.9894 -99.4572 58° Northeast 420 483 32,800 -1,388 Descending Kansas City Center
Sat 03:36:43 AM 38.0378 -99.3239 65° Northeast 422 486 31,300 -1,785 Descending Kansas City Center
Sat 03:37:43 AM 38.0731 -99.1847 72° East 415 478 29,200 -2,100 Descending Kansas City Center
Sat 03:38:43 AM 38.1072 -99.0444 73° East 416 479 27,100 -2,182 Descending Kansas City Center
Sat 03:39:44 AM 38.1469 -98.9028 70° East 422 486 24,800 -2,331 Descending Kansas City Center
Sat 03:40:44 AM 38.1911 -98.7675 67° East 417 480 22,400 -2,500 Descending Kansas City Center
Sat 03:41:44 AM 38.2328 -98.6375 68° East 398 458 19,800 -2,300 Descending Kansas City Center
Sat 03:42:44 AM 38.2692 -98.5119 70° East 380 437 17,800 -1,983 Descending Kansas City Center
Sat 03:43:45 AM 38.3067 -98.3922 68° East 364 419 15,800 -1,983 Descending Kansas City Center
Sat 03:44:45 AM 38.3444 -98.2756 68° East 355 409 13,800 -2,200 Descending Kansas City Center
Sat 03:45:45 AM 38.3778 -98.1617 69° East 343 395 11,400 -1,587 Descending Kansas City Center
Sat 03:46:46 AM 38.4083 -98.0572 69° East 311 358 10,600 -1,140 Descending Kansas City Center
Sat 03:47:46 AM 38.4361 -97.9686 68° East 272 313 9,100 -1,550 Descending Kansas City Center
Sat 03:48:46 AM 38.4558 -97.8794 74° East 262 302 7,500 -1,600 Descending Kansas City Center
Sat 03:49:46 AM 38.4872 -97.8003 63° Northeast 252 290 5,900 -1,488 Descending Kansas City Center
Sat 03:50:47 AM 38.5350 -97.7436 43° Northeast 238 274 4,500 -1,240 Descending Kansas City Center
Sat 03:51:47 AM 38.5881 -97.6956 35° Northeast 232 267 3,400 -750 Descending Kansas City Center
Sat 03:52:47 AM 38.6394 -97.6536 33° Northeast 221 254 3,000 -300 Descending Kansas City Center
Sat 03:53:47 AM 38.6917 -97.6464 North 188 216 2,800 -496 Descending Kansas City Center
Sat 03:54:48 AM 38.7389 -97.6456 North 158 182 2,000 -787 Descending Kansas City Center

Login

Don't have an account? Register now (free) for customized features, flight alerts, and more!